NFRS weather

Treasure Island Seaplane Base
Treasure Island Resort, Western, Fiji

Public forecast

Using degrees Celsius for public forecast. Weather courtesy of forecast.io.

Closest aviation weather report (METAR) to Treasure Island Seaplane Base

Report is more than 6 hours old.

Closest report is Malolo Lailai Island Airport, 8.3 nm (15.4 km) SSW. Retrieved 2014/01/10 00:00 UTC (6 years ago):

NFFO 100000Z 28015KT 9999 SCT017 BKN110 29/26 Q1003

Closest aviation forecast (TAF) to Treasure Island Seaplane Base

Closest forecast is Nadi International Airport, 11.8 nm (21.9 km) ESE. Retrieved 2020-02-20 00:00 UTC (2 hours ago):

TAF NFFN 192322Z 2000/2024 31010KT 9999 FEW030 SCT050 BECMG 2004/2006 13008KT BECMG 2022/2024 31008KT